Time;durP1;ratioP1;P1;durP2;ratioP2;P2;SDS_P1;SDS_P2;PMS_P1;PMS_P2;Temp;Humidity;BMP_temperature;BMP_pressure;BME280_temperature;BME280_humidity;BME280_pressure;Samples;Min_cycle;Max_cycle;Signal;HPM_P1;HPM_P2
2023/01/13 00:01:14;;;;;;;8.18;2.28;;;;;;;8.55;100.00;100422.81;5096019;28;19912;-38
2023/01/13 00:03:39;;;;;;;11.85;3.20;;;;;;;8.52;100.00;100417.84;5096698;28;20090;-37
2023/01/13 00:06:06;;;;;;;10.38;2.92;;;;;;;8.48;100.00;100413.97;5095532;28;20047;-37
2023/01/13 00:08:32;;;;;;;11.32;3.97;;;;;;;8.49;100.00;100421.00;5096321;28;20122;-38
2023/01/13 00:10:57;;;;;;;12.27;3.50;;;;;;;8.47;100.00;100421.22;5096022;28;20107;-37
2023/01/13 00:13:26;;;;;;;9.25;2.58;;;;;;;8.46;100.00;100416.06;5096463;28;20024;-37
2023/01/13 00:15:55;;;;;;;17.50;3.53;;;;;;;8.30;100.00;100393.25;5096203;28;20028;-37
2023/01/13 00:18:21;;;;;;;15.13;3.25;;;;;;;8.37;100.00;100395.88;5095641;28;20020;-37
2023/01/13 00:20:46;;;;;;;13.27;3.63;;;;;;;8.35;100.00;100392.56;5095362;28;20077;-37
2023/01/13 00:23:11;;;;;;;16.20;3.27;;;;;;;8.35;100.00;100392.56;5095726;28;20039;-37
2023/01/13 00:25:36;;;;;;;14.37;3.20;;;;;;;8.33;100.00;100389.25;5096092;28;20031;-37
2023/01/13 00:28:02;;;;;;;16.30;3.90;;;;;;;8.29;100.00;100393.44;5096117;28;20016;-37
2023/01/13 00:30:27;;;;;;;15.35;4.00;;;;;;;8.26;100.00;100390.19;5095731;28;20020;-37
2023/01/13 00:32:53;;;;;;;16.83;4.20;;;;;;;8.21;100.00;100379.25;5095923;28;20461;-37
2023/01/13 00:35:18;;;;;;;11.87;3.20;;;;;;;8.19;100.00;100377.84;5095122;28;20486;-37
2023/01/13 00:37:43;;;;;;;12.87;3.10;;;;;;;8.06;100.00;100368.06;5095385;28;20020;-38
2023/01/13 00:40:10;;;;;;;14.83;3.53;;;;;;;8.11;100.00;100376.28;5095646;28;20479;-37
2023/01/13 00:45:19;;;;;;;13.98;3.38;;;;;;;8.06;100.00;100372.63;5095821;28;20047;-37
2023/01/13 00:47:44;;;;;;;16.77;4.30;;;;;;;8.03;100.00;100365.00;5094929;28;20016;-37
2023/01/13 00:50:10;;;;;;;22.37;4.63;;;;;;;8.04;100.00;100372.00;5095219;28;20609;-37
2023/01/13 00:52:35;;;;;;;11.93;4.07;;;;;;;8.03;100.00;100378.47;5094876;28;20051;-37
2023/01/13 00:55:00;;;;;;;16.63;4.17;;;;;;;8.04;100.00;100388.16;5095341;28;20020;-37
2023/01/13 00:57:26;;;;;;;20.43;5.60;;;;;;;8.04;100.00;100377.41;5094946;28;20129;-37
2023/01/13 00:59:51;;;;;;;18.77;3.80;;;;;;;8.02;100.00;100374.94;5095269;28;20251;-37
2023/01/13 01:02:16;;;;;;;20.23;3.83;;;;;;;8.02;100.00;100382.19;5077511;28;20039;-37
2023/01/13 01:04:42;;;;;;;22.47;4.67;;;;;;;7.99;100.00;100381.59;5094873;28;20106;-37
2023/01/13 01:07:07;;;;;;;18.57;4.20;;;;;;;7.99;100.00;100392.34;5095446;28;20024;-37
2023/01/13 01:09:33;;;;;;;24.20;5.53;;;;;;;7.95;100.00;100401.97;5095367;28;20031;-37
2023/01/13 01:12:00;;;;;;;18.63;3.95;;;;;;;7.96;100.00;100389.31;5094535;28;20035;-38
2023/01/13 01:14:26;;;;;;;21.23;4.65;;;;;;;7.96;100.00;100397.41;5094717;28;20085;-38
2023/01/13 01:16:51;;;;;;;16.27;4.13;;;;;;;7.94;100.00;100396.78;5094571;28;20115;-38
2023/01/13 01:19:17;;;;;;;19.50;4.68;;;;;;;7.92;100.00;100396.19;5094393;28;20106;-38
2023/01/13 01:21:42;;;;;;;18.42;4.22;;;;;;;7.95;100.00;100391.19;5094202;28;20081;-38
2023/01/13 01:24:08;;;;;;;19.80;4.93;;;;;;;7.97;100.00;100394.47;5094798;28;20020;-38
2023/01/13 01:26:33;;;;;;;22.77;5.05;;;;;;;7.97;100.00;100399.84;5094740;28;20067;-38
2023/01/13 01:29:01;;;;;;;19.77;5.40;;;;;;;7.99;100.00;100400.44;5094957;28;20074;-37
2023/01/13 01:31:31;;;;;;;14.93;4.00;;;;;;;8.02;100.00;100395.66;5094309;28;20158;-38
2023/01/13 01:33:56;;;;;;;14.32;4.53;;;;;;;8.04;100.00;100396.25;5094805;28;20032;-38
2023/01/13 01:36:25;;;;;;;20.92;4.93;;;;;;;7.94;100.00;100378.75;5094333;28;20035;-37
2023/01/13 01:38:51;;;;;;;21.77;4.22;;;;;;;7.99;100.00;100388.84;5094193;28;20024;-38
2023/01/13 01:41:22;;;;;;;17.98;4.25;;;;;;;7.93;100.00;100382.50;5094765;28;20020;-38
2023/01/13 01:44:02;;;;;;;17.88;4.07;;;;;;;7.93;100.00;100395.97;5094084;28;20032;-38
2023/01/13 01:46:42;;;;;;;20.40;4.22;;;;;;;7.96;100.00;100394.69;5094613;28;20082;-38
2023/01/13 01:49:23;;;;;;;17.13;3.65;;;;;;;7.92;100.00;100393.50;5094382;28;20470;-38
2023/01/13 01:51:54;;;;;;;19.15;3.92;;;;;;;7.90;100.00;100401.78;5094200;28;20461;-38
2023/01/13 01:54:26;;;;;;;21.52;4.50;;;;;;;7.90;100.00;100391.00;5094258;28;20473;-38
2023/01/13 01:56:52;;;;;;;20.52;5.15;;;;;;;7.88;100.00;100387.72;5094288;28;20050;-38
2023/01/13 01:59:17;;;;;;;15.45;3.42;;;;;;;7.83;100.00;100384.88;5094181;28;20030;-37
2023/01/13 02:01:44;;;;;;;24.00;4.07;;;;;;;7.80;100.00;100388.00;5093621;28;20039;-37
2023/01/13 02:04:18;;;;;;;21.90;5.15;;;;;;;7.72;100.00;100378.38;5094156;28;20034;-38
2023/01/13 02:06:45;;;;;;;19.77;4.32;;;;;;;7.72;100.00;100375.69;5094143;28;20024;-37
2023/01/13 02:09:11;;;;;;;20.42;4.47;;;;;;;7.72;100.00;100372.19;5094089;28;20115;-37
2023/01/13 02:14:27;;;;;;;20.05;4.70;;;;;;;7.68;100.00;100389.81;5012322;28;20085;-37
2023/01/13 02:17:25;;;;;;;18.67;4.18;;;;;;;7.71;100.00;100386.66;5011700;28;20478;-37
2023/01/13 02:20:11;;;;;;;26.63;5.63;;;;;;;7.66;100.00;100381.13;4915245;29;20108;-37
2023/01/13 02:22:45;;;;;;;27.37;5.87;;;;;;;7.49;100.00;100362.06;4915255;29;20070;-37
2023/01/13 02:25:34;;;;;;;19.48;5.35;;;;;;;7.57;100.00;100379.81;4915631;29;20048;-37
2023/01/13 02:28:25;;;;;;;24.27;4.72;;;;;;;7.58;100.00;100384.94;4915309;29;20116;-37
2023/01/13 02:33:51;;;;;;;20.98;4.68;;;;;;;7.53;100.00;100379.41;4915216;29;20110;-37
2023/01/13 02:36:47;;;;;;;23.60;5.65;;;;;;;7.51;100.00;100384.16;4914966;29;20067;-37
2023/01/13 02:39:21;;;;;;;22.33;4.75;;;;;;;7.47;100.00;100378.44;4915370;29;20040;-38
2023/01/13 02:45:10;;;;;;;20.23;4.38;;;;;;;7.53;100.00;100367.81;4915786;29;20072;-38
2023/01/13 02:47:38;;;;;;;21.10;4.63;;;;;;;7.42;100.00;100356.75;4915434;29;20036;-38
2023/01/13 02:50:16;;;;;;;25.50;4.63;;;;;;;7.40;100.00;100350.75;4915448;29;20044;-38
2023/01/13 02:53:07;;;;;;;23.27;4.28;;;;;;;7.45;100.00;100358.16;4978722;28;20135;-38
2023/01/13 02:55:40;;;;;;;18.42;4.95;;;;;;;7.39;100.00;100353.69;4991758;28;20036;-38
2023/01/13 02:58:10;;;;;;;22.25;4.68;;;;;;;7.43;100.00;100361.09;5073685;28;20039;-38
2023/01/13 03:00:36;;;;;;;22.25;4.68;;;;;;;7.43;100.00;100353.03;5073347;28;20025;-37
2023/01/13 03:03:02;;;;;;;20.58;4.43;;;;;;;7.37;100.00;100348.53;5072716;28;20123;-38
2023/01/13 03:05:30;;;;;;;20.30;4.63;;;;;;;7.43;100.00;100354.88;5072717;28;20100;-38
2023/01/13 03:08:10;;;;;;;23.60;4.75;;;;;;;7.43;100.00;100353.03;5055685;28;20283;-38
2023/01/13 03:10:55;;;;;;;24.80;4.13;;;;;;;7.45;100.00;100358.97;5073585;28;20129;-37
2023/01/13 03:13:40;;;;;;;20.25;4.80;;;;;;;7.47;100.00;100356.91;5073459;28;20021;-38
2023/01/13 03:16:37;;;;;;;19.55;4.93;;;;;;;7.48;100.00;100345.09;5073442;28;20086;-38
2023/01/13 03:19:31;;;;;;;29.02;5.97;;;;;;;7.52;100.00;100333.91;5073502;28;20052;-38
2023/01/13 03:22:29;;;;;;;22.33;4.53;;;;;;;7.52;100.00;100350.03;5012343;28;20124;-38
2023/01/13 03:25:08;;;;;;;20.23;4.18;;;;;;;7.54;100.00;100345.25;4975541;28;20038;-38
2023/01/13 03:27:49;;;;;;;18.33;4.10;;;;;;;7.49;100.00;100317.16;4975798;28;20047;-38
2023/01/13 03:30:20;;;;;;;15.60;4.07;;;;;;;7.53;100.00;100316.72;4959072;28;20062;-37
2023/01/13 03:32:49;;;;;;;14.75;3.70;;;;;;;7.62;100.00;100331.53;4975196;28;20094;-38
2023/01/13 03:35:36;;;;;;;16.63;4.18;;;;;;;7.65;100.00;100329.19;4975394;28;20050;-38
2023/01/13 03:38:09;;;;;;;19.67;4.43;;;;;;;7.67;100.00;100321.72;4975169;28;20066;-38
2023/01/13 03:40:43;;;;;;;17.83;4.35;;;;;;;7.70;100.00;100323.13;4975988;28;20072;-38
2023/01/13 03:46:05;;;;;;;11.68;2.90;;;;;;;7.74;100.00;100317.06;4962088;28;20078;-38
2023/01/13 03:48:34;;;;;;;11.73;3.10;;;;;;;7.77;100.00;100318.50;4975193;28;20039;-38
2023/01/13 03:51:05;;;;;;;11.23;3.03;;;;;;;7.77;100.00;100328.44;4974975;28;20115;-38
2023/01/13 03:53:44;;;;;;;8.32;1.80;;;;;;;7.79;100.00;100308.31;4975613;28;20495;-38
2023/01/13 03:56:33;;;;;;;8.68;2.30;;;;;;;7.81;100.00;100314.31;4975420;28;20077;-38
2023/01/13 03:59:01;;;;;;;9.05;1.83;;;;;;;7.77;100.00;100302.34;5007707;28;20045;-38
2023/01/13 04:01:44;;;;;;;7.75;1.88;;;;;;;7.84;99.83;100313.03;5058331;28;20115;-38
2023/01/13 04:04:19;;;;;;;5.85;1.50;;;;;;;7.87;99.58;100324.19;5075918;28;20032;-38
2023/01/13 04:06:55;;;;;;;6.35;1.80;;;;;;;7.86;98.73;100330.63;5075934;28;20021;-38
2023/01/13 04:09:32;;;;;;;5.57;1.38;;;;;;;7.86;98.44;100341.38;5076599;28;20033;-37
2023/01/13 04:12:59;;;;;;;4.38;1.15;;;;;;;7.84;100.00;100356.91;5076185;28;20033;-38
2023/01/13 04:15:17;;;;;;;;;;;;;;;7.81;100.00;100357.38;5076021;28;20443;-37
2023/01/13 04:17:43;;;;;;;7.40;1.37;;;;;;;7.74;100.00;100360.13;5075564;28;20257;-38
2023/01/13 04:20:09;;;;;;;5.20;1.10;;;;;;;7.71;100.00;100370.50;5075566;28;20257;-38
2023/01/13 04:22:34;;;;;;;5.80;1.30;;;;;;;7.69;100.00;100373.44;5076059;28;20031;-37
2023/01/13 04:25:00;;;;;;;4.63;1.10;;;;;;;7.66;100.00;100371.22;5074120;28;20032;-37
2023/01/13 04:27:25;;;;;;;4.03;1.03;;;;;;;7.64;100.00;100373.28;5075445;28;20070;-38
2023/01/13 04:29:50;;;;;;;5.40;1.20;;;;;;;7.61;100.00;100371.06;5074986;28;20028;-38
2023/01/13 04:32:16;;;;;;;3.23;1.00;;;;;;;7.57;100.00;100369.84;5075216;28;20033;-37
2023/01/13 04:34:41;;;;;;;5.37;1.50;;;;;;;7.56;100.00;100373.56;5075211;28;20028;-37
2023/01/13 04:37:06;;;;;;;8.10;1.53;;;;;;;7.53;100.00;100367.81;5075130;28;20078;-38
2023/01/13 04:39:32;;;;;;;6.77;1.77;;;;;;;7.41;100.00;100349.72;5075819;28;20059;-37
2023/01/13 04:41:57;;;;;;;5.30;1.80;;;;;;;7.54;100.00;100361.41;5074933;28;20024;-38
2023/01/13 04:44:23;;;;;;;7.60;2.00;;;;;;;7.55;100.00;100360.34;5075899;28;20043;-38
2023/01/13 04:46:48;;;;;;;6.90;1.80;;;;;;;7.47;100.00;100350.72;5075228;28;20357;-38
2023/01/13 04:49:13;;;;;;;3.07;1.00;;;;;;;7.54;100.00;100370.28;5075026;28;20035;-38
2023/01/13 04:51:39;;;;;;;7.00;1.90;;;;;;;7.51;100.00;100367.22;5074849;28;20110;-38
2023/01/13 04:54:04;;;;;;;7.70;1.83;;;;;;;7.47;100.00;100351.53;5093610;28;20109;-38
2023/01/13 04:56:30;;;;;;;6.20;1.65;;;;;;;7.41;100.00;100348.88;5076443;28;20148;-37
2023/01/13 04:58:55;;;;;;;7.93;2.37;;;;;;;7.34;100.00;100332.81;5095578;28;20031;-38
2023/01/13 05:01:21;;;;;;;7.60;2.15;;;;;;;7.31;100.00;100332.44;5095146;28;20056;-46
2023/01/13 05:03:46;;;;;;;16.03;3.17;;;;;;;7.28;100.00;100339.09;5094995;28;20036;-38
2023/01/13 05:06:11;;;;;;;10.03;2.40;;;;;;;7.22;100.00;100335.44;5095218;28;20459;-38
2023/01/13 05:08:37;;;;;;;9.87;3.43;;;;;;;7.16;100.00;100338.16;5094774;28;20028;-37
2023/01/13 05:16:58;;;;;;;12.63;3.30;;;;;;;7.13;100.00;100330.56;5095218;28;20054;-37
2023/01/13 05:19:18;;;;;;;10.43;2.67;;;;;;;7.07;100.00;100329.53;5094679;28;20105;-38
2023/01/13 05:27:11;;;;;;;12.18;3.13;;;;;;;7.06;100.00;100345.91;5094543;28;20454;-38
2023/01/13 05:29:36;;;;;;;18.07;4.57;;;;;;;7.05;100.00;100350.47;5095040;28;20028;-37
2023/01/13 05:32:03;;;;;;;12.47;2.43;;;;;;;7.04;100.00;100359.59;5094002;28;20063;-38
2023/01/13 05:34:28;;;;;;;13.23;2.85;;;;;;;7.04;100.00;100358.75;5094520;28;20073;-38
2023/01/13 05:36:54;;;;;;;13.00;2.33;;;;;;;7.04;100.00;100367.66;5094559;28;20114;-38
2023/01/13 05:39:19;;;;;;;12.43;2.60;;;;;;;7.03;100.00;100365.16;5094581;28;20032;-38
2023/01/13 05:44:28;;;;;;;11.27;2.92;;;;;;;7.09;100.00;100372.38;5094433;28;20039;-37
2023/01/13 05:46:53;;;;;;;12.83;2.77;;;;;;;6.95;100.00;100353.66;5093374;28;20028;-37
2023/01/13 05:49:18;;;;;;;11.00;2.63;;;;;;;7.04;100.00;100378.41;5094435;28;20028;-37
2023/01/13 05:51:44;;;;;;;9.73;2.63;;;;;;;6.99;100.00;100367.47;5093687;28;20027;-37
2023/01/13 05:54:09;;;;;;;9.27;2.40;;;;;;;7.08;100.00;100384.16;5094645;28;20388;-37
2023/01/13 05:56:35;;;;;;;11.43;2.37;;;;;;;7.09;100.00;100391.19;5093615;28;20361;-38
2023/01/13 05:59:00;;;;;;;10.05;2.38;;;;;;;7.12;100.00;100393.41;5094717;28;20025;-38
2023/01/13 06:01:25;;;;;;;12.27;2.37;;;;;;;7.12;100.00;100396.09;5093805;28;20035;-37
2023/01/13 06:03:51;;;;;;;13.10;2.43;;;;;;;7.11;100.00;100391.78;5094684;28;20060;-37
2023/01/13 06:06:16;;;;;;;11.43;2.43;;;;;;;7.09;100.00;100396.56;5075103;28;20047;-37
2023/01/13 06:08:41;;;;;;;12.43;2.87;;;;;;;7.06;100.00;100384.38;5094071;28;20025;-37
2023/01/13 06:11:07;;;;;;;12.20;2.60;;;;;;;7.04;100.00;100401.78;5093989;28;20456;-37
2023/01/13 06:13:32;;;;;;;12.40;2.90;;;;;;;7.02;100.00;100399.28;5093427;28;20031;-37
2023/01/13 06:15:58;;;;;;;16.17;3.40;;;;;;;7.01;100.00;100403.03;5093444;28;20143;-38
2023/01/13 06:18:23;;;;;;;9.88;2.50;;;;;;;6.95;100.00;100399.34;5093742;28;20031;-37
2023/01/13 06:20:49;;;;;;;11.35;3.15;;;;;;;6.98;100.00;100403.47;5093955;28;20086;-37
2023/01/13 06:23:14;;;;;;;12.00;2.43;;;;;;;6.91;100.00;100398.13;5094033;28;20111;-38
2023/01/13 06:25:42;;;;;;;15.27;3.37;;;;;;;6.96;100.00;100410.91;5093562;28;20165;-37
2023/01/13 06:28:08;;;;;;;11.35;2.53;;;;;;;6.94;100.00;100405.78;5094127;28;20024;-37
2023/01/13 06:30:45;;;;;;;10.80;2.42;;;;;;;6.88;100.00;100389.66;5093597;28;20388;-37
2023/01/13 06:33:22;;;;;;;11.07;2.67;;;;;;;6.92;100.00;100393.56;5093698;28;20080;-38
2023/01/13 06:35:54;;;;;;;12.27;2.63;;;;;;;6.93;100.00;100404.13;5093759;28;20514;-37
2023/01/13 06:38:22;;;;;;;10.55;2.42;;;;;;;6.89;100.00;100405.59;5093755;28;20032;-37
2023/01/13 06:40:48;;;;;;;9.20;2.55;;;;;;;6.82;100.00;100399.44;5093422;28;20073;-37
2023/01/13 06:43:13;;;;;;;16.90;3.25;;;;;;;6.85;100.00;100414.31;5094065;28;20032;-37
2023/01/13 06:45:40;;;;;;;14.50;2.78;;;;;;;6.87;100.00;100418.41;5093175;28;20028;-38
2023/01/13 06:48:05;;;;;;;;;;;;;;;6.89;100.00;100408.28;5093563;28;20053;-38
2023/01/13 06:50:31;;;;;;;13.15;2.72;;;;;;;6.84;100.00;100415.38;5093125;28;19999;-37
2023/01/13 06:52:56;;;;;;;15.33;3.10;;;;;;;6.84;100.00;100413.50;5093263;28;20051;-38
2023/01/13 06:55:21;;;;;;;12.30;2.77;;;;;;;6.81;100.00;100400.47;5093361;28;20380;-37
2023/01/13 06:57:51;;;;;;;10.27;2.70;;;;;;;6.82;100.00;100396.75;5095451;28;20032;-37
2023/01/13 07:00:16;;;;;;;11.60;2.92;;;;;;;6.83;100.00;100411.00;5097906;28;20046;-37
2023/01/13 07:02:41;;;;;;;17.35;3.65;;;;;;;6.77;100.00;100396.56;5097438;28;20032;-37
2023/01/13 07:05:07;;;;;;;10.30;2.53;;;;;;;6.86;100.00;100415.94;5097475;28;20034;-37
2023/01/13 07:07:32;;;;;;;14.37;3.73;;;;;;;6.79;100.00;100407.94;5097210;28;20037;-37
2023/01/13 07:09:58;;;;;;;10.30;3.55;;;;;;;6.87;100.00;100415.72;5097487;28;20259;-37
2023/01/13 07:12:24;;;;;;;12.82;3.05;;;;;;;6.89;100.00;100402.09;5097263;28;20447;-37
2023/01/13 07:17:33;;;;;;;11.40;2.80;;;;;;;6.76;100.00;100399.47;5097304;28;20093;-37
2023/01/13 07:19:58;;;;;;;13.87;2.97;;;;;;;6.94;100.00;100437.22;5097813;28;20031;-38
2023/01/13 07:22:24;;;;;;;14.30;3.23;;;;;;;6.91;100.00;100438.44;5096518;28;20036;-38
2023/01/13 07:24:49;;;;;;;12.83;2.97;;;;;;;6.91;100.00;100427.69;5096865;28;20024;-37
2023/01/13 07:27:14;;;;;;;12.80;3.00;;;;;;;6.95;100.00;100438.84;5096480;28;20024;-38
2023/01/13 07:29:40;;;;;;;13.30;3.00;;;;;;;6.92;100.00;100432.03;5096801;28;20028;-38
2023/01/13 07:32:06;;;;;;;15.20;3.63;;;;;;;6.88;100.00;100424.59;5096398;28;20032;-38
2023/01/13 07:34:32;;;;;;;15.07;3.30;;;;;;;6.92;100.00;100445.47;5096443;28;20028;-39
2023/01/13 07:36:57;;;;;;;13.83;3.00;;;;;;;6.83;100.00;100421.75;5096632;28;20051;-37
2023/01/13 07:39:22;;;;;;;16.53;3.60;;;;;;;6.73;100.00;100406.09;5096887;28;20718;-38
2023/01/13 07:44:32;;;;;;;14.60;3.30;;;;;;;6.87;100.00;100441.78;5096798;28;20031;-37
2023/01/13 07:46:57;;;;;;;12.53;2.93;;;;;;;6.86;100.00;100446.34;5096390;28;20020;-37
2023/01/13 07:49:22;;;;;;;17.10;6.10;;;;;;;6.85;100.00;100441.19;5096439;28;20020;-37
2023/01/13 07:51:47;;;;;;;18.40;4.30;;;;;;;6.79;100.00;100442.88;5096881;28;20024;-37
2023/01/13 07:54:13;;;;;;;12.90;3.13;;;;;;;6.85;100.00;100441.19;5096871;28;20083;-38
2023/01/13 07:56:38;;;;;;;15.80;3.27;;;;;;;6.86;100.00;100453.59;5095945;28;20020;-38
2023/01/13 07:59:03;;;;;;;16.10;4.27;;;;;;;6.85;100.00;100446.56;5096219;28;20028;-38
2023/01/13 08:01:30;;;;;;;13.80;3.13;;;;;;;6.83;100.00;100449.47;5096131;28;20028;-37
2023/01/13 08:03:57;;;;;;;15.95;3.58;;;;;;;6.84;100.00;100448.44;5096345;28;20085;-37
2023/01/13 08:06:23;;;;;;;15.20;3.35;;;;;;;6.79;100.00;100437.50;5096279;28;20028;-37
2023/01/13 08:08:48;;;;;;;14.48;3.28;;;;;;;6.85;100.00;100442.00;5094949;28;20379;-37
2023/01/13 08:11:13;;;;;;;14.37;3.60;;;;;;;6.89;100.00;100453.97;5096802;28;20035;-37
2023/01/13 08:13:39;;;;;;;13.50;3.03;;;;;;;6.89;100.00;100447.78;5096144;28;20313;-37
2023/01/13 08:16:07;;;;;;;15.43;3.50;;;;;;;6.90;100.00;100465.56;5095780;28;20024;-37
2023/01/13 08:18:33;;;;;;;16.85;4.10;;;;;;;6.93;100.00;100460.56;5095861;28;20024;-37
2023/01/13 08:21:13;;;;;;;14.60;3.15;;;;;;;7.00;100.00;100467.78;5095656;28;20040;-37
2023/01/13 08:23:40;;;;;;;14.82;3.20;;;;;;;6.98;100.00;100457.25;5096333;28;20081;-37
2023/01/13 08:26:16;;;;;;;13.32;3.38;;;;;;;7.01;100.00;100461.34;5095639;28;20051;-38
2023/01/13 08:28:41;;;;;;;15.50;4.18;;;;;;;7.04;100.00;100466.31;5096218;28;20050;-37
2023/01/13 08:31:10;;;;;;;13.90;3.45;;;;;;;7.08;100.00;100476.41;5077765;28;20032;-37
2023/01/13 08:33:36;;;;;;;13.82;2.97;;;;;;;7.09;100.00;100471.84;5096079;28;20035;-37
2023/01/13 08:36:02;;;;;;;;;;;;;;;7.13;100.00;100481.13;5095561;28;20134;-38
2023/01/13 08:38:28;;;;;;;16.17;3.03;;;;;;;7.09;100.00;100485.28;5095999;28;20256;-37
2023/01/13 08:40:53;;;;;;;15.97;4.27;;;;;;;7.18;100.00;100492.88;5095403;28;20028;-37
2023/01/13 08:43:18;;;;;;;18.07;4.60;;;;;;;7.05;100.00;100462.56;5095613;28;20415;-37
2023/01/13 08:45:44;;;;;;;19.10;3.63;;;;;;;7.24;100.00;100483.13;5077740;28;20040;-37
2023/01/13 08:48:09;;;;;;;16.13;4.20;;;;;;;7.25;100.00;100490.13;5095298;28;20026;-38
2023/01/13 08:50:35;;;;;;;16.70;3.22;;;;;;;7.28;100.00;100478.97;5094881;28;20407;-37
2023/01/13 08:53:00;;;;;;;13.70;3.47;;;;;;;7.33;100.00;100489.88;5095705;28;20060;-37
2023/01/13 08:55:25;;;;;;;21.20;4.13;;;;;;;7.36;100.00;100486.75;5094830;28;20313;-37
2023/01/13 08:57:51;;;;;;;17.87;3.97;;;;;;;7.36;100.00;100489.44;5095628;28;20437;-37
2023/01/13 09:00:17;;;;;;;14.80;4.30;;;;;;;7.40;100.00;100506.78;5095307;28;20032;-37
2023/01/13 09:02:42;;;;;;;23.20;4.15;;;;;;;7.38;100.00;100500.00;5095745;28;20024;-37
2023/01/13 09:05:09;;;;;;;18.80;5.07;;;;;;;7.47;100.00;100506.75;5094643;28;20035;-37
2023/01/13 09:07:36;;;;;;;14.60;3.72;;;;;;;7.56;100.00;100505.41;5076517;28;20119;-37
2023/01/13 09:10:05;;;;;;;18.00;3.97;;;;;;;7.63;100.00;100511.59;5095382;28;20028;-38
2023/01/13 09:15:17;;;;;;;19.33;4.05;;;;;;;7.67;100.00;100509.28;5094526;28;20047;-38
2023/01/13 09:17:43;;;;;;;14.00;3.28;;;;;;;7.67;100.00;100503.91;5076455;28;20400;-38
2023/01/13 09:20:10;;;;;;;15.15;3.40;;;;;;;7.47;100.00;100483.38;5094973;28;20039;-38
2023/01/13 09:22:36;;;;;;;23.10;5.00;;;;;;;7.62;100.00;100498.34;5094457;28;20028;-37
2023/01/13 09:25:02;;;;;;;;;;;;;;;7.66;100.00;100510.31;5077077;28;20069;-37
2023/01/13 09:27:27;;;;;;;17.00;3.95;;;;;;;7.64;100.00;100509.72;5094413;28;19947;-37
2023/01/13 09:29:53;;;;;;;17.03;4.00;;;;;;;7.66;100.00;100502.22;5094771;28;20020;-37
2023/01/13 09:32:18;;;;;;;22.87;4.53;;;;;;;7.58;100.00;100508.72;5094270;28;20027;-37
2023/01/13 09:34:58;;;;;;;17.13;3.73;;;;;;;7.57;100.00;100514.34;5094921;28;20024;-37
2023/01/13 09:37:44;;;;;;;12.88;3.08;;;;;;;7.56;100.00;100520.75;5094585;28;20165;-36
2023/01/13 09:40:18;;;;;;;15.48;3.42;;;;;;;7.59;100.00;100528.38;5093323;28;20055;-37
2023/01/13 09:45:42;;;;;;;17.95;4.18;;;;;;;7.65;100.00;100549.84;5094503;28;20070;-36
2023/01/13 09:48:11;;;;;;;21.10;4.22;;;;;;;7.67;100.00;100552.34;5094713;28;20097;-37
2023/01/13 09:50:42;;;;;;;22.73;4.78;;;;;;;7.69;100.00;100551.06;5095083;28;20464;-38
2023/01/13 09:53:13;;;;;;;18.52;3.92;;;;;;;7.66;100.00;100540.75;5094922;28;20055;-36
2023/01/13 09:55:39;;;;;;;19.10;3.92;;;;;;;7.70;100.00;100551.88;5094293;28;20028;-36
2023/01/13 09:58:13;;;;;;;18.90;4.70;;;;;;;7.69;100.00;100574.47;5075627;28;20062;-37
2023/01/13 10:00:51;;;;;;;17.40;4.00;;;;;;;7.61;100.00;100550.50;5093638;28;20270;-37
2023/01/13 10:03:24;;;;;;;17.83;4.65;;;;;;;7.63;100.00;100570.78;5093944;28;20056;-36
2023/01/13 10:05:56;;;;;;;20.73;3.97;;;;;;;7.60;100.00;100568.53;5093925;28;20028;-36
2023/01/13 10:08:27;;;;;;;15.00;3.35;;;;;;;7.60;100.00;100562.31;5093944;28;20024;-36
2023/01/13 10:10:58;;;;;;;25.23;5.47;;;;;;;7.61;100.00;100572.88;5093819;28;20452;-36
2023/01/13 10:13:25;;;;;;;18.35;4.55;;;;;;;7.65;100.00;100575.94;5093919;28;20032;-37
2023/01/13 10:16:04;;;;;;;23.27;3.95;;;;;;;7.62;100.00;100582.59;5093652;28;20029;-37
2023/01/13 10:19:06;;;;;;;18.73;4.50;;;;;;;7.57;100.00;100574.38;5094095;28;20119;-37
2023/01/13 10:21:32;;;;;;;19.70;4.72;;;;;;;7.49;100.00;100575.44;5093414;28;20066;-37
2023/01/13 10:24:06;;;;;;;14.07;4.20;;;;;;;7.41;100.00;100575.69;5094210;28;20484;-36
2023/01/13 10:26:46;;;;;;;15.45;4.03;;;;;;;7.37;100.00;100585.25;5093788;28;20411;-36
2023/01/13 10:29:26;;;;;;;20.48;4.65;;;;;;;7.30;100.00;100586.31;5094097;28;20081;-36
2023/01/13 10:31:54;;;;;;;17.70;4.15;;;;;;;7.26;100.00;100599.38;5094927;28;20030;-37
2023/01/13 10:34:20;;;;;;;21.95;5.30;;;;;;;7.23;100.00;100599.81;5098313;28;20070;-37
2023/01/13 10:36:52;;;;;;;;;;;;;;;7.27;100.00;100605.56;5098683;28;20089;-37
2023/01/13 10:39:20;;;;;;;26.70;4.57;;;;;;;7.21;100.00;100612.63;5097998;28;20343;-37
2023/01/13 10:41:45;;;;;;;18.73;4.00;;;;;;;7.19;100.00;100612.03;5097651;28;20430;-37
2023/01/13 10:44:15;;;;;;;14.13;3.80;;;;;;;7.17;100.00;100606.88;5097725;28;20036;-37
2023/01/13 10:46:52;;;;;;;20.40;4.18;;;;;;;7.12;100.00;100597.78;5097838;28;20051;-37
2023/01/13 10:49:37;;;;;;;17.48;4.22;;;;;;;7.21;100.00;100604.56;5097616;28;20486;-37
2023/01/13 10:52:22;;;;;;;18.17;4.20;;;;;;;7.21;100.00;100602.69;5097574;28;20023;-37
2023/01/13 10:54:52;;;;;;;13.80;3.53;;;;;;;7.27;100.00;100614.50;5097747;28;20074;-37
2023/01/13 10:57:23;;;;;;;16.23;3.45;;;;;;;7.28;100.00;100605.38;5097034;28;20476;-37
2023/01/13 10:59:49;;;;;;;15.65;4.13;;;;;;;7.29;100.00;100614.25;5097690;28;20020;-37
2023/01/13 11:02:17;;;;;;;17.98;4.20;;;;;;;7.31;100.00;100610.31;5097290;28;20028;-37
2023/01/13 11:04:54;;;;;;;20.48;5.15;;;;;;;7.30;100.00;100611.34;5097626;28;20053;-38
2023/01/13 11:07:22;;;;;;;;;;;;;;;7.34;100.00;100611.75;5097603;28;20020;-37
2023/01/13 11:09:47;;;;;;;15.07;3.83;;;;;;;7.26;100.00;100612.81;5097211;28;19954;-37
2023/01/13 11:13:04;;;;;;;14.70;4.47;;;;;;;7.28;100.00;100615.31;5096765;28;20028;-38
2023/01/13 11:15:55;;;;;;;19.63;4.45;;;;;;;7.30;100.00;100613.22;5035294;28;20084;-37
2023/01/13 11:18:39;;;;;;;22.63;4.05;;;;;;;7.31;100.00;100618.38;5029058;28;20038;-37
2023/01/13 11:21:22;;;;;;;16.77;4.00;;;;;;;7.35;100.00;100619.59;5034997;28;20422;-38
2023/01/13 11:24:00;;;;;;;19.45;3.97;;;;;;;7.40;100.00;100618.94;5034402;28;20088;-37
2023/01/13 11:26:39;;;;;;;23.33;4.97;;;;;;;7.43;100.00;100616.66;5034590;28;20064;-37
2023/01/13 11:29:16;;;;;;;16.20;4.38;;;;;;;7.52;100.00;100624.50;5034887;28;20034;-37
2023/01/13 11:31:45;;;;;;;;;;;;;;;7.59;100.00;100622.56;5035183;28;20132;-37
2023/01/13 11:34:21;;;;;;;19.33;4.88;;;;;;;7.46;100.00;100613.53;5034152;28;19956;-37
2023/01/13 11:36:49;;;;;;;;;;;;;;;7.57;100.00;100619.28;5034564;28;20025;-37
2023/01/13 11:39:54;;;;;;;18.42;4.82;;;;;;;7.54;100.00;100617.84;5034014;28;19909;-37
2023/01/13 11:42:40;;;;;;;15.25;3.65;;;;;;;7.56;100.00;100614.91;5033956;28;20059;-37
2023/01/13 11:45:30;;;;;;;19.40;4.80;;;;;;;7.60;100.00;100616.13;5034235;28;20529;-37
2023/01/13 11:47:58;;;;;;;19.60;4.22;;;;;;;7.62;100.00;100632.91;5034470;28;20033;-36
2023/01/13 11:51:03;;;;;;;15.65;4.15;;;;;;;7.65;100.00;100630.59;5055392;28;20036;-38
2023/01/13 11:53:51;;;;;;;22.17;3.25;;;;;;;7.71;100.00;100631.59;5054291;28;20557;-37
2023/01/13 11:56:32;;;;;;;19.08;3.83;;;;;;;7.77;100.00;100641.50;5053735;28;20045;-37
2023/01/13 11:59:29;;;;;;;23.38;4.55;;;;;;;7.78;100.00;100655.78;5053736;28;20105;-37
2023/01/13 12:02:13;;;;;;;15.25;3.53;;;;;;;7.77;100.00;100649.59;5046296;28;20548;-37
2023/01/13 12:05:15;;;;;;;15.23;3.67;;;;;;;7.76;100.00;100658.72;5054396;28;20044;-37
2023/01/13 12:08:01;;;;;;;16.45;4.25;;;;;;;7.67;100.00;100649.22;5053386;28;20029;-37
2023/01/13 12:10:35;;;;;;;14.97;3.80;;;;;;;7.74;100.00;100664.28;5054006;28;20086;-38
2023/01/13 12:13:06;;;;;;;17.80;3.97;;;;;;;7.72;100.00;100663.69;5054099;28;20025;-38
2023/01/13 12:15:55;;;;;;;19.98;4.32;;;;;;;7.76;100.00;100672.16;5053656;28;20494;-38